METAR Data
IDs: Format: Raw Decoded Include TAF

Data at: 1106 UTC 18 Jan 2022

LTFM 181050Z 34020KT 9999 SCT032 06/M06 Q1023 NOSIG RMK RWY17L 34020KT RWY34L 34022KT RWY16R 34018KT RWY36 35023KT RWY18 34021KT